Time;durP1;ratioP1;P1;durP2;ratioP2;P2;SDS_P1;SDS_P2;PMS_P1;PMS_P2;Temp;Humidity;BMP_temperature;BMP_pressure;BME280_temperature;BME280_humidity;BME280_pressure;Samples;Min_cycle;Max_cycle;Signal;HPM_P1;HPM_P2
2022/07/10 00:00:38;;;;;;;3.55;3.25;;;20.80;78.20;;;;;;5107281;28;20028;-59
2022/07/10 00:03:04;;;;;;;4.13;3.45;;;20.80;78.20;;;;;;5112933;28;20398;-59
2022/07/10 00:05:31;;;;;;;4.15;3.50;;;20.80;78.30;;;;;;5109508;28;20047;-59
2022/07/10 00:07:57;;;;;;;4.50;3.75;;;20.80;78.40;;;;;;5113253;28;20432;-59
2022/07/10 00:10:23;;;;;;;3.80;3.47;;;20.80;78.30;;;;;;5109488;28;20027;-59
2022/07/10 00:12:50;;;;;;;4.03;3.08;;;20.80;78.60;;;;;;5111805;28;20063;-59
2022/07/10 00:15:17;;;;;;;4.10;3.70;;;20.70;78.60;;;;;;5119342;27;20080;-59
2022/07/10 00:17:44;;;;;;;5.15;3.80;;;20.70;78.80;;;;;;5092185;28;20041;-59
2022/07/10 00:20:11;;;;;;;4.13;3.60;;;20.70;79.00;;;;;;5111881;28;20020;-59
2022/07/10 00:22:39;;;;;;;3.40;3.10;;;20.70;78.90;;;;;;5112784;28;20042;-59
2022/07/10 00:25:07;;;;;;;3.90;3.30;;;20.60;78.80;;;;;;5112902;28;20471;-59
2022/07/10 00:27:32;;;;;;;4.85;4.03;;;20.60;78.90;;;;;;5106642;28;20072;-59
2022/07/10 00:29:58;;;;;;;4.43;3.70;;;20.60;79.10;;;;;;5112640;28;20027;-59
2022/07/10 00:32:24;;;;;;;4.97;3.60;;;20.60;78.90;;;;;;5108893;28;20113;-59
2022/07/10 00:34:50;;;;;;;3.80;3.40;;;20.60;79.20;;;;;;5111714;28;20491;-59
2022/07/10 00:37:16;;;;;;;3.90;3.47;;;20.60;79.30;;;;;;5112620;28;20023;-59
2022/07/10 00:39:42;;;;;;;3.90;3.53;;;20.60;79.40;;;;;;5107786;28;20016;-59
2022/07/10 00:42:13;;;;;;;3.95;3.53;;;20.60;79.40;;;;;;5104825;28;20019;-59
2022/07/10 00:44:39;;;;;;;3.95;3.47;;;20.50;79.20;;;;;;5111515;28;20051;-59
2022/07/10 00:47:06;;;;;;;4.18;3.38;;;20.50;79.40;;;;;;5112258;28;20354;-59
2022/07/10 00:49:35;;;;;;;4.13;3.72;;;20.50;79.60;;;;;;5112198;28;20059;-59
2022/07/10 00:52:06;;;;;;;4.00;3.58;;;20.50;80.10;;;;;;5111561;28;20059;-59
2022/07/10 00:54:33;;;;;;;3.83;3.33;;;20.50;79.60;;;;;;5112065;28;20027;-59
2022/07/10 00:57:00;;;;;;;3.70;3.38;;;20.50;79.70;;;;;;5110236;28;20035;-59
2022/07/10 00:59:27;;;;;;;4.50;4.07;;;20.50;79.80;;;;;;5112230;28;20012;-59
2022/07/10 01:01:53;;;;;;;4.47;3.97;;;20.40;80.10;;;;;;5110111;28;20418;-59
2022/07/10 01:04:19;;;;;;;4.40;4.00;;;20.40;80.10;;;;;;5111878;28;20023;-59
2022/07/10 01:06:45;;;;;;;4.85;4.03;;;20.40;80.50;;;;;;5110210;28;20399;-59
2022/07/10 01:09:11;;;;;;;4.45;3.70;;;20.30;80.70;;;;;;5106166;28;20066;-59
2022/07/10 01:11:37;;;;;;;4.20;3.80;;;20.30;80.80;;;;;;5111018;28;20035;-59
2022/07/10 01:14:04;;;;;;;3.45;3.15;;;20.30;81.00;;;;;;5107439;28;20024;-59
2022/07/10 01:16:30;;;;;;;4.63;4.10;;;20.30;81.00;;;;;;5112072;28;20031;-59
2022/07/10 01:18:57;;;;;;;4.68;4.10;;;20.20;81.10;;;;;;5111342;28;20024;-59
2022/07/10 01:21:31;;;;;;;4.00;3.47;;;20.20;81.30;;;;;;5112257;28;20054;-59
2022/07/10 01:23:57;;;;;;;4.55;4.13;;;20.20;81.60;;;;;;5111163;28;20027;-59
2022/07/10 01:26:23;;;;;;;4.18;3.78;;;20.20;81.80;;;;;;5109159;28;20081;-59
2022/07/10 01:28:53;;;;;;;4.15;3.75;;;20.20;82.10;;;;;;5110266;28;20020;-59
2022/07/10 01:31:20;;;;;;;4.10;3.70;;;20.20;82.30;;;;;;5114855;28;20062;-59
2022/07/10 01:33:46;;;;;;;3.90;3.50;;;20.10;82.20;;;;;;5115560;28;20024;-59
2022/07/10 01:36:13;;;;;;;4.63;3.95;;;20.10;82.20;;;;;;5106165;28;20031;-59
2022/07/10 01:38:40;;;;;;;4.22;3.83;;;20.10;82.30;;;;;;5116040;28;20024;-58
2022/07/10 01:41:08;;;;;;;4.40;3.85;;;20.10;82.40;;;;;;5109065;28;20531;-59
2022/07/10 01:43:35;;;;;;;5.55;3.97;;;20.10;82.30;;;;;;5114949;28;20429;-59
2022/07/10 01:46:01;;;;;;;4.50;4.10;;;20.10;82.30;;;;;;5115428;28;20056;-59
2022/07/10 01:48:26;;;;;;;4.70;4.15;;;20.10;83.10;;;;;;5115538;28;20048;-59
2022/07/10 01:50:52;;;;;;;4.47;3.60;;;20.10;82.70;;;;;;5114861;28;20110;-59
2022/07/10 01:53:18;;;;;;;4.45;3.88;;;20.10;82.80;;;;;;5115399;28;20031;-59
2022/07/10 01:55:43;;;;;;;3.88;3.47;;;20.10;82.70;;;;;;5114165;28;20016;-58
2022/07/10 01:58:09;;;;;;;4.13;3.55;;;20.10;82.90;;;;;;5099808;28;20467;-59
2022/07/10 02:00:34;;;;;;;4.40;3.50;;;20.10;82.70;;;;;;5111731;28;20024;-59
2022/07/10 02:05:44;;;;;;;4.45;4.05;;;20.10;82.70;;;;;;5115537;28;20108;-59
2022/07/10 02:08:10;;;;;;;3.78;3.30;;;20.10;82.80;;;;;;5114554;28;20096;-59
2022/07/10 02:10:35;;;;;;;5.65;3.70;;;20.20;82.70;;;;;;5114138;28;20031;-59
2022/07/10 02:13:01;;;;;;;4.55;3.70;;;20.20;82.70;;;;;;5115091;28;20033;-59
2022/07/10 02:15:26;;;;;;;3.70;3.33;;;20.20;82.70;;;;;;5114326;28;20035;-59
2022/07/10 02:17:52;;;;;;;3.58;3.28;;;20.20;82.50;;;;;;5112375;28;20478;-59
2022/07/10 02:20:18;;;;;;;4.95;3.90;;;20.20;82.40;;;;;;5115084;28;20027;-59
2022/07/10 02:22:43;;;;;;;4.47;3.70;;;20.20;82.50;;;;;;5115236;28;20019;-59
2022/07/10 02:25:09;;;;;;;4.57;4.18;;;20.30;82.50;;;;;;5113779;28;20028;-59
2022/07/10 02:27:34;;;;;;;5.47;3.90;;;20.20;82.20;;;;;;5111138;28;20049;-59
2022/07/10 02:30:00;;;;;;;4.38;3.97;;;20.20;82.10;;;;;;5106814;28;20046;-59
2022/07/10 02:32:26;;;;;;;4.60;3.88;;;20.20;81.90;;;;;;5114888;28;20034;-59
2022/07/10 02:34:52;;;;;;;4.75;4.25;;;20.20;82.10;;;;;;5109747;28;20101;-59
2022/07/10 02:37:17;;;;;;;4.78;3.88;;;20.20;82.20;;;;;;5114502;28;20069;-59
2022/07/10 02:39:43;;;;;;;4.68;4.10;;;20.20;82.00;;;;;;5114329;28;20032;-59
2022/07/10 02:42:09;;;;;;;4.60;3.70;;;20.20;81.90;;;;;;5099769;28;20392;-59
2022/07/10 02:44:34;;;;;;;4.30;3.90;;;20.20;81.90;;;;;;5114891;28;20024;-59
2022/07/10 02:47:00;;;;;;;3.75;3.30;;;20.20;81.70;;;;;;5113281;28;20517;-59
2022/07/10 02:49:26;;;;;;;4.15;3.75;;;20.20;81.50;;;;;;5096072;28;20048;-59
2022/07/10 02:51:52;;;;;;;4.82;4.32;;;20.20;81.80;;;;;;5114339;28;20031;-61
2022/07/10 02:54:17;;;;;;;4.68;3.80;;;20.30;81.70;;;;;;5108425;28;20024;-61
2022/07/10 02:56:43;;;;;;;4.38;3.80;;;20.30;81.70;;;;;;5112947;28;20028;-61
2022/07/10 02:59:09;;;;;;;4.35;3.60;;;20.30;81.70;;;;;;5112090;28;20028;-61
2022/07/10 03:01:34;;;;;;;4.10;3.78;;;20.30;81.70;;;;;;5114183;28;20027;-61
2022/07/10 03:04:01;;;;;;;4.30;3.90;;;20.30;81.70;;;;;;5112698;28;20118;-61
2022/07/10 03:06:27;;;;;;;4.13;3.72;;;20.40;81.50;;;;;;5114302;28;20050;-61
2022/07/10 03:08:52;;;;;;;4.20;3.80;;;20.40;81.50;;;;;;5109962;28;20019;-61
2022/07/10 03:11:18;;;;;;;4.28;3.80;;;20.50;81.40;;;;;;5111054;28;20028;-61
2022/07/10 03:13:44;;;;;;;3.67;3.25;;;20.50;81.20;;;;;;5114049;28;20077;-61
2022/07/10 03:16:09;;;;;;;3.70;3.38;;;20.60;80.90;;;;;;5113109;28;20028;-61
2022/07/10 03:18:35;;;;;;;4.47;4.07;;;20.60;80.80;;;;;;5111817;28;20015;-61
2022/07/10 03:21:01;;;;;;;3.55;3.25;;;20.60;80.70;;;;;;5111226;28;20023;-61
2022/07/10 03:23:27;;;;;;;3.83;3.42;;;20.70;80.60;;;;;;5113329;28;20107;-60
2022/07/10 03:25:52;;;;;;;3.78;3.40;;;20.80;80.50;;;;;;5109288;28;20111;-61
2022/07/10 03:28:18;;;;;;;5.18;3.40;;;20.90;80.20;;;;;;5113881;28;20133;-61
2022/07/10 03:30:44;;;;;;;3.63;3.33;;;20.90;80.00;;;;;;5111299;28;20040;-61
2022/07/10 03:33:09;;;;;;;3.53;3.22;;;21.10;79.70;;;;;;5112911;28;20058;-60
2022/07/10 03:35:35;;;;;;;3.60;3.30;;;21.10;79.50;;;;;;5106990;28;20027;-61
2022/07/10 03:38:02;;;;;;;3.50;3.20;;;21.20;79.30;;;;;;5113746;28;20034;-61
2022/07/10 03:40:27;;;;;;;3.50;3.03;;;21.30;79.20;;;;;;5112100;28;20034;-61
2022/07/10 03:42:53;;;;;;;4.28;3.58;;;21.40;79.50;;;;;;5109273;28;20024;-60
2022/07/10 03:45:19;;;;;;;3.63;3.33;;;21.50;78.60;;;;;;5113149;28;20030;-61
2022/07/10 03:47:44;;;;;;;3.50;3.20;;;21.60;78.10;;;;;;5110615;28;20023;-61
2022/07/10 03:50:10;;;;;;;3.40;3.10;;;21.60;77.70;;;;;;5106971;28;20035;-61
2022/07/10 03:52:36;;;;;;;3.53;2.80;;;21.60;77.30;;;;;;5111732;28;20024;-61
2022/07/10 03:55:02;;;;;;;3.45;3.15;;;21.60;77.40;;;;;;5113215;28;20038;-61
2022/07/10 04:00:13;;;;;;;4.03;3.50;;;21.60;77.10;;;;;;5105121;28;20026;-61
2022/07/10 04:02:39;;;;;;;3.72;3.38;;;21.60;77.00;;;;;;5108154;28;20019;-61
2022/07/10 04:05:06;;;;;;;3.53;3.22;;;21.60;77.10;;;;;;5113332;28;20415;-59
2022/07/10 04:07:32;;;;;;;3.58;3.28;;;21.70;77.80;;;;;;5111836;28;20110;-59
2022/07/10 04:09:57;;;;;;;3.03;2.75;;;21.90;78.00;;;;;;5111147;28;20102;-59
2022/07/10 04:12:23;;;;;;;3.53;3.22;;;22.10;76.90;;;;;;5112972;28;20028;-59
2022/07/10 04:14:51;;;;;;;3.28;2.97;;;22.50;76.60;;;;;;5112631;28;20054;-59
2022/07/10 04:17:17;;;;;;;3.10;2.85;;;22.80;76.40;;;;;;5107510;28;20535;-59
2022/07/10 04:19:43;;;;;;;3.50;3.20;;;23.30;75.30;;;;;;5112256;28;20084;-59
2022/07/10 04:22:08;;;;;;;3.40;3.10;;;23.70;74.30;;;;;;5113084;28;20047;-59
2022/07/10 04:24:35;;;;;;;3.80;3.10;;;24.00;73.60;;;;;;5111861;28;20020;-59
2022/07/10 04:27:01;;;;;;;3.67;3.38;;;24.50;73.00;;;;;;5108290;28;20379;-59
2022/07/10 04:29:27;;;;;;;3.22;3.00;;;24.90;71.90;;;;;;5112722;28;20106;-59
2022/07/10 04:31:52;;;;;;;3.33;2.92;;;25.30;71.00;;;;;;5112445;28;20024;-59
2022/07/10 04:34:18;;;;;;;4.38;3.17;;;25.60;70.10;;;;;;5112604;28;20487;-59
2022/07/10 04:36:44;;;;;;;3.85;3.30;;;25.70;69.50;;;;;;5106067;28;20019;-59
2022/07/10 04:39:09;;;;;;;3.45;3.13;;;25.80;69.30;;;;;;5113182;28;20026;-59
2022/07/10 04:41:35;;;;;;;3.38;3.08;;;25.90;69.00;;;;;;5105594;28;20032;-59
2022/07/10 04:44:01;;;;;;;3.53;3.22;;;26.00;68.30;;;;;;5110369;28;20513;-59
2022/07/10 04:46:27;;;;;;;3.45;2.83;;;26.00;67.80;;;;;;5112765;28;20034;-59
2022/07/10 04:48:52;;;;;;;3.13;2.83;;;26.10;67.60;;;;;;5106932;28;20040;-58
2022/07/10 04:51:18;;;;;;;3.70;3.40;;;26.10;67.30;;;;;;5112665;28;20024;-59
2022/07/10 04:53:44;;;;;;;4.47;2.97;;;26.10;67.10;;;;;;5106657;28;20051;-59
2022/07/10 04:56:09;;;;;;;3.50;3.20;;;26.10;66.70;;;;;;5108140;28;20032;-59
2022/07/10 04:58:35;;;;;;;3.42;3.13;;;26.10;66.50;;;;;;5105671;28;20029;-59
2022/07/10 05:01:01;;;;;;;3.30;3.00;;;25.90;66.30;;;;;;5111162;28;20031;-59
2022/07/10 05:03:28;;;;;;;3.38;3.08;;;25.90;66.90;;;;;;5114222;28;20023;-59
2022/07/10 05:05:54;;;;;;;3.53;2.97;;;25.90;66.80;;;;;;5116372;28;20024;-59
2022/07/10 05:08:20;;;;;;;3.60;3.00;;;26.00;66.80;;;;;;5107948;28;20507;-59
2022/07/10 05:10:45;;;;;;;4.03;3.55;;;26.20;66.80;;;;;;5112505;28;20027;-59
2022/07/10 05:13:11;;;;;;;3.47;3.17;;;26.50;66.80;;;;;;5116162;28;20024;-59
2022/07/10 05:15:38;;;;;;;3.35;3.05;;;26.90;66.50;;;;;;5115621;28;20024;-59
2022/07/10 05:18:04;;;;;;;4.20;3.50;;;27.30;65.80;;;;;;5115242;28;20032;-59
2022/07/10 05:20:30;;;;;;;3.85;3.45;;;27.60;64.80;;;;;;5114584;28;20049;-58
2022/07/10 05:22:56;;;;;;;3.67;3.33;;;27.80;64.20;;;;;;5114260;28;20050;-59
2022/07/10 05:25:22;;;;;;;5.63;3.35;;;28.00;63.60;;;;;;5112669;28;20479;-59
2022/07/10 05:27:47;;;;;;;4.60;3.45;;;28.10;62.90;;;;;;5106922;28;20085;-59
2022/07/10 05:30:13;;;;;;;3.80;3.20;;;28.00;62.50;;;;;;5114044;28;20011;-59
2022/07/10 05:32:46;;;;;;;3.70;3.35;;;27.80;62.20;;;;;;5113142;28;20035;-59
2022/07/10 05:35:13;;;;;;;3.72;3.33;;;27.50;62.30;;;;;;5113406;28;20471;-58
2022/07/10 05:37:39;;;;;;;3.95;3.55;;;27.20;62.90;;;;;;5110734;28;20027;-59
2022/07/10 05:40:05;;;;;;;3.65;3.35;;;26.90;63.20;;;;;;5115746;28;20016;-59
2022/07/10 05:42:31;;;;;;;5.53;3.92;;;26.70;63.60;;;;;;5111575;28;20043;-59
2022/07/10 05:44:56;;;;;;;4.95;3.92;;;26.50;64.10;;;;;;5115905;28;20308;-59
2022/07/10 05:47:22;;;;;;;3.85;3.45;;;26.30;64.40;;;;;;5115527;28;20378;-59
2022/07/10 05:49:48;;;;;;;3.58;3.25;;;26.10;64.60;;;;;;5110641;28;20075;-59
2022/07/10 05:52:14;;;;;;;3.75;3.33;;;26.00;64.80;;;;;;5113748;28;20035;-59
2022/07/10 05:54:39;;;;;;;6.35;4.00;;;25.80;65.00;;;;;;5108051;28;20394;-59
2022/07/10 05:57:05;;;;;;;4.00;3.60;;;25.70;65.30;;;;;;5095859;28;20028;-59
2022/07/10 05:59:34;;;;;;;4.10;3.70;;;25.50;65.50;;;;;;5115456;28;20026;-59
2022/07/10 06:02:01;;;;;;;4.80;3.85;;;25.50;65.60;;;;;;5115334;28;20382;-59
2022/07/10 06:04:26;;;;;;;3.83;3.53;;;25.40;65.90;;;;;;5115484;28;20022;-59
2022/07/10 06:06:52;;;;;;;3.92;3.53;;;25.30;65.90;;;;;;5113106;28;20107;-59
2022/07/10 06:09:18;;;;;;;4.03;3.65;;;25.20;66.20;;;;;;5114687;28;20016;-59
2022/07/10 06:11:45;;;;;;;4.07;3.67;;;25.20;66.40;;;;;;5114813;28;20024;-59
2022/07/10 06:14:11;;;;;;;4.70;3.78;;;25.10;66.50;;;;;;5115171;28;20438;-58
2022/07/10 06:16:37;;;;;;;3.80;3.50;;;25.10;66.80;;;;;;5114731;28;20034;-59
2022/07/10 06:19:03;;;;;;;3.95;3.53;;;25.00;67.00;;;;;;5115155;28;20356;-59
2022/07/10 06:21:29;;;;;;;4.50;3.78;;;25.00;67.10;;;;;;5115015;28;20098;-59
2022/07/10 06:23:54;;;;;;;3.83;3.53;;;25.00;67.30;;;;;;5113335;28;20050;-59
2022/07/10 06:26:20;;;;;;;4.32;3.92;;;24.90;67.40;;;;;;5110483;28;20024;-59
2022/07/10 06:28:46;;;;;;;5.13;4.32;;;24.90;67.50;;;;;;5102627;28;20427;-59
2022/07/10 06:31:11;;;;;;;4.20;3.80;;;24.90;67.50;;;;;;5114961;28;20480;-59
2022/07/10 06:33:38;;;;;;;4.15;3.72;;;24.80;67.60;;;;;;5103130;28;20421;-59
2022/07/10 06:36:04;;;;;;;3.88;3.47;;;24.90;67.90;;;;;;5114837;28;20024;-59
2022/07/10 06:38:29;;;;;;;3.72;3.38;;;24.80;67.70;;;;;;5114887;28;20364;-58
2022/07/10 06:40:55;;;;;;;4.28;3.88;;;24.80;67.90;;;;;;5105517;28;20027;-59
2022/07/10 06:43:21;;;;;;;3.78;3.33;;;24.80;68.00;;;;;;5111715;27;20084;-59
2022/07/10 06:45:47;;;;;;;3.88;3.33;;;24.90;68.10;;;;;;5114910;28;20379;-59
2022/07/10 06:48:14;;;;;;;3.90;3.50;;;24.90;67.90;;;;;;5114365;28;20620;-59
2022/07/10 06:50:41;;;;;;;3.80;3.45;;;25.00;67.90;;;;;;5114301;28;20034;-59
2022/07/10 06:53:07;;;;;;;3.60;3.30;;;25.00;67.80;;;;;;5111807;28;20499;-59
2022/07/10 06:55:34;;;;;;;3.53;3.22;;;25.00;67.80;;;;;;5109786;28;20125;-59
2022/07/10 06:57:59;;;;;;;4.03;3.63;;;25.00;67.90;;;;;;5113370;28;20024;-59
2022/07/10 07:00:25;;;;;;;3.22;2.92;;;25.00;67.80;;;;;;5104296;28;20026;-59
2022/07/10 07:02:51;;;;;;;3.67;3.38;;;25.10;67.80;;;;;;5114126;28;20044;-59
2022/07/10 07:05:17;;;;;;;3.60;3.30;;;25.00;67.60;;;;;;5113614;28;20023;-59
2022/07/10 07:07:43;;;;;;;3.25;2.95;;;25.10;67.60;;;;;;5114219;28;20395;-59
2022/07/10 07:10:09;;;;;;;3.85;3.45;;;25.10;67.60;;;;;;5113126;28;20501;-59
2022/07/10 07:12:35;;;;;;;3.83;3.40;;;25.10;67.50;;;;;;5114203;28;20024;-59
2022/07/10 07:15:01;;;;;;;3.40;3.10;;;25.10;67.50;;;;;;5112809;28;20031;-58
2022/07/10 07:17:33;;;;;;;3.58;3.28;;;25.10;67.50;;;;;;5111492;27;20027;-59
2022/07/10 07:25:29;;;;;;;5.00;3.50;;;25.20;67.40;;;;;;5109133;27;20027;-59
2022/07/10 07:27:55;;;;;;;3.25;2.97;;;25.20;67.30;;;;;;5114095;27;20479;-58
2022/07/10 07:30:20;;;;;;;4.00;3.58;;;25.20;67.20;;;;;;5107693;27;20096;-59
2022/07/10 07:32:47;;;;;;;4.13;3.58;;;25.20;67.10;;;;;;5113936;27;20540;-59
2022/07/10 07:35:15;;;;;;;3.30;3.00;;;25.20;67.10;;;;;;5105511;27;20031;-59
2022/07/10 07:37:49;;;;;;;3.60;3.20;;;25.20;67.20;;;;;;5113687;27;20023;-59
2022/07/10 07:40:19;;;;;;;4.03;3.63;;;25.20;67.10;;;;;;5106316;27;20012;-59
2022/07/10 07:42:45;;;;;;;3.38;3.08;;;25.20;67.00;;;;;;5109825;27;20463;-59
2022/07/10 07:45:11;;;;;;;3.38;3.10;;;25.20;67.20;;;;;;5114101;27;20084;-59
2022/07/10 07:47:56;;;;;;;4.68;3.35;;;25.20;67.20;;;;;;5116915;27;20015;-59
2022/07/10 07:50:26;;;;;;;3.83;3.42;;;25.20;66.90;;;;;;5105982;27;20040;-59
2022/07/10 07:52:52;;;;;;;3.83;3.53;;;25.20;67.10;;;;;;5114298;27;20039;-59
2022/07/10 07:55:19;;;;;;;4.43;4.00;;;25.20;67.10;;;;;;5114884;27;20047;-59
2022/07/10 07:57:45;;;;;;;3.63;3.33;;;25.30;66.90;;;;;;5110191;27;20497;-59
2022/07/10 08:00:12;;;;;;;4.20;3.80;;;25.30;66.90;;;;;;5111449;27;20059;-61
2022/07/10 08:02:38;;;;;;;4.03;3.63;;;25.40;66.90;;;;;;5106640;27;20039;-61
2022/07/10 08:05:05;;;;;;;3.58;3.28;;;25.40;66.60;;;;;;5106079;27;20047;-61
2022/07/10 08:07:35;;;;;;;4.07;3.67;;;25.40;66.60;;;;;;5107690;27;20522;-59
2022/07/10 08:10:02;;;;;;;4.13;3.72;;;25.40;66.50;;;;;;5107316;27;20403;-59
2022/07/10 08:12:28;;;;;;;4.15;3.75;;;25.40;66.40;;;;;;5115252;28;20023;-59
2022/07/10 08:14:54;;;;;;;4.07;3.55;;;25.40;66.30;;;;;;5121322;27;20024;-59
2022/07/10 08:17:21;;;;;;;3.92;3.60;;;25.40;66.40;;;;;;5110013;28;20028;-59
2022/07/10 08:19:47;;;;;;;3.88;3.53;;;25.40;66.40;;;;;;5099432;28;20472;-59
2022/07/10 08:22:12;;;;;;;3.97;3.58;;;25.40;66.40;;;;;;5110423;28;20035;-59
2022/07/10 08:24:38;;;;;;;4.45;4.03;;;25.40;66.60;;;;;;5103342;28;20050;-59
2022/07/10 08:27:06;;;;;;;3.72;3.28;;;25.40;66.60;;;;;;5105471;28;20024;-59
2022/07/10 08:29:32;;;;;;;4.10;3.60;;;25.40;66.60;;;;;;5108715;28;20046;-59
2022/07/10 08:31:57;;;;;;;3.83;3.50;;;25.40;66.60;;;;;;5105621;27;20016;-60
2022/07/10 08:34:23;;;;;;;4.38;3.03;;;25.40;66.40;;;;;;5109956;28;20020;-60
2022/07/10 08:36:49;;;;;;;4.03;3.65;;;25.40;66.50;;;;;;5105480;28;20494;-60
2022/07/10 08:39:16;;;;;;;3.70;3.38;;;25.40;66.30;;;;;;5098036;28;20031;-60
2022/07/10 08:41:42;;;;;;;3.53;3.22;;;25.30;66.30;;;;;;5103900;28;20111;-60
2022/07/10 08:44:08;;;;;;;4.00;3.60;;;25.40;66.40;;;;;;5100417;28;20026;-60
2022/07/10 08:46:35;;;;;;;3.58;3.28;;;25.40;66.40;;;;;;5099454;28;20027;-60
2022/07/10 08:49:07;;;;;;;4.18;3.67;;;25.40;66.30;;;;;;5105514;28;20063;-60
2022/07/10 08:51:40;;;;;;;4.13;3.22;;;25.40;66.20;;;;;;5106476;28;20053;-59
2022/07/10 08:54:08;;;;;;;4.43;3.50;;;25.30;66.30;;;;;;5096060;28;20063;-60
2022/07/10 08:56:35;;;;;;;3.72;3.42;;;25.40;66.40;;;;;;5092514;28;20043;-60
2022/07/10 08:59:04;;;;;;;3.40;3.10;;;25.30;66.40;;;;;;5112365;28;20024;-60
2022/07/10 09:01:30;;;;;;;4.28;3.88;;;25.40;66.50;;;;;;5108826;28;20023;-60
2022/07/10 09:03:55;;;;;;;4.38;3.97;;;25.30;66.30;;;;;;5107364;28;20395;-60
2022/07/10 09:06:21;;;;;;;4.05;3.50;;;25.40;66.10;;;;;;5110485;28;20380;-60
2022/07/10 09:09:02;;;;;;;3.95;3.60;;;25.40;66.20;;;;;;5110529;28;20080;-60
2022/07/10 09:11:31;;;;;;;3.55;3.25;;;25.50;66.10;;;;;;5108803;28;20027;-60
2022/07/10 09:13:59;;;;;;;3.90;3.50;;;25.40;66.10;;;;;;5110964;28;20124;-60
2022/07/10 09:16:27;;;;;;;3.50;3.20;;;25.50;66.10;;;;;;5109738;28;20055;-60
2022/07/10 09:18:54;;;;;;;3.63;3.33;;;25.50;65.90;;;;;;5111785;28;20031;-60
2022/07/10 09:21:20;;;;;;;3.50;3.20;;;25.50;65.80;;;;;;5111627;28;20027;-60
2022/07/10 09:23:46;;;;;;;3.63;3.28;;;25.60;65.80;;;;;;5111488;28;20027;-60
2022/07/10 09:26:12;;;;;;;4.10;3.72;;;25.60;65.90;;;;;;5108961;28;20031;-60
2022/07/10 09:28:38;;;;;;;3.95;3.47;;;25.60;65.60;;;;;;5106395;28;20077;-59
2022/07/10 09:31:04;;;;;;;3.33;3.03;;;25.70;65.40;;;;;;5110044;28;20036;-60
2022/07/10 09:33:31;;;;;;;3.38;3.10;;;25.70;65.40;;;;;;5111831;28;20509;-60
2022/07/10 09:36:13;;;;;;;3.72;3.40;;;25.70;65.40;;;;;;5111816;28;20024;-60
2022/07/10 09:38:48;;;;;;;4.22;3.20;;;25.80;65.40;;;;;;5109755;28;20432;-60
2022/07/10 09:41:23;;;;;;;4.70;3.60;;;25.80;65.20;;;;;;5110114;28;20076;-60
2022/07/10 09:44:04;;;;;;;3.75;3.35;;;25.80;65.30;;;;;;5110433;28;20019;-59
2022/07/10 09:46:38;;;;;;;3.40;3.10;;;25.80;65.20;;;;;;5106650;28;20023;-60
2022/07/10 09:49:08;;;;;;;3.30;3.00;;;25.80;65.00;;;;;;5108421;28;20051;-60
2022/07/10 09:51:36;;;;;;;3.95;3.55;;;25.90;65.10;;;;;;5113385;28;20020;-60
2022/07/10 09:54:05;;;;;;;3.28;2.92;;;25.90;65.10;;;;;;5094942;28;20032;-60
2022/07/10 09:56:40;;;;;;;3.38;3.08;;;25.90;64.90;;;;;;5113196;28;20455;-60
2022/07/10 09:59:09;;;;;;;3.17;2.92;;;25.80;64.80;;;;;;5113989;28;20034;-59
2022/07/10 10:01:37;;;;;;;4.70;4.22;;;25.80;64.70;;;;;;5113698;28;20026;-60
2022/07/10 10:04:04;;;;;;;3.78;3.47;;;25.80;64.60;;;;;;5112055;28;20548;-60
2022/07/10 10:06:30;;;;;;;3.90;3.55;;;25.80;64.50;;;;;;5112675;28;20024;-60
2022/07/10 10:09:06;;;;;;;3.85;3.38;;;25.80;64.90;;;;;;5113069;28;20039;-60
2022/07/10 10:11:35;;;;;;;3.00;2.70;;;25.80;64.80;;;;;;5111808;28;20046;-60
2022/07/10 10:14:02;;;;;;;3.05;2.75;;;25.80;64.60;;;;;;5112988;28;20115;-60
2022/07/10 10:16:28;;;;;;;2.60;2.40;;;25.80;64.60;;;;;;5113883;28;20028;-60
2022/07/10 10:21:40;;;;;;;3.17;2.83;;;25.80;64.60;;;;;;5114117;28;20103;-60
2022/07/10 10:24:06;;;;;;;3.30;3.00;;;25.90;64.50;;;;;;5112660;28;20459;-60
2022/07/10 10:26:33;;;;;;;2.88;2.55;;;25.90;64.50;;;;;;5112607;28;20031;-59
2022/07/10 10:29:01;;;;;;;2.72;2.53;;;25.90;65.10;;;;;;5113521;28;20023;-60
2022/07/10 10:31:28;;;;;;;3.03;2.67;;;26.00;64.20;;;;;;5112050;28;20446;-60
2022/07/10 10:33:55;;;;;;;2.85;2.55;;;26.00;64.00;;;;;;5114576;28;20024;-60
2022/07/10 10:36:44;;;;;;;3.70;3.33;;;26.00;64.00;;;;;;5114415;28;20078;-59
2022/07/10 10:39:16;;;;;;;3.40;3.00;;;26.00;63.60;;;;;;5104468;28;20051;-60
2022/07/10 10:41:48;;;;;;;3.17;2.88;;;26.00;63.70;;;;;;5114103;28;20533;-60
2022/07/10 10:44:16;;;;;;;3.40;3.10;;;26.10;63.80;;;;;;5111447;28;20052;-60
2022/07/10 10:46:54;;;;;;;3.63;3.00;;;26.10;63.60;;;;;;5111247;28;20417;-60
2022/07/10 10:49:22;;;;;;;2.83;2.63;;;26.00;64.20;;;;;;5113914;28;20032;-60
2022/07/10 10:52:01;;;;;;;3.13;2.90;;;26.10;63.60;;;;;;5113653;28;20034;-60
2022/07/10 10:54:29;;;;;;;3.65;3.25;;;26.00;63.50;;;;;;5112843;28;20066;-60
2022/07/10 10:57:14;;;;;;;2.90;2.70;;;26.00;63.50;;;;;;5101427;28;20130;-60
2022/07/10 10:59:51;;;;;;;2.80;2.60;;;26.00;63.30;;;;;;5114294;28;20016;-60
2022/07/10 11:02:32;;;;;;;2.95;2.72;;;26.00;63.50;;;;;;5110301;28;20032;-60
2022/07/10 11:05:31;;;;;;;3.28;2.88;;;25.90;63.60;;;;;;5107007;28;20165;-59
2022/07/10 11:08:04;;;;;;;3.50;3.20;;;25.90;63.70;;;;;;5111042;28;20035;-60
2022/07/10 11:10:33;;;;;;;2.90;2.70;;;25.90;63.60;;;;;;5112820;28;20112;-59
2022/07/10 11:13:06;;;;;;;3.78;2.70;;;25.80;63.50;;;;;;5112563;28;20031;-58
2022/07/10 11:15:34;;;;;;;2.97;2.70;;;25.80;63.50;;;;;;5113474;28;20081;-58
2022/07/10 11:18:07;;;;;;;3.10;2.80;;;25.80;63.90;;;;;;5112224;28;20030;-59
2022/07/10 11:20:45;;;;;;;3.83;3.17;;;25.70;64.10;;;;;;5102737;28;20027;-59
2022/07/10 11:23:39;;;;;;;3.05;2.80;;;25.80;64.30;;;;;;5113633;28;20098;-59
2022/07/10 11:26:11;;;;;;;3.17;2.88;;;25.70;64.50;;;;;;5110347;28;20032;-59
2022/07/10 11:28:58;;;;;;;5.20;4.70;;;25.80;64.50;;;;;;5111945;28;20069;-59
2022/07/10 11:31:25;;;;;;;3.67;3.20;;;25.80;64.50;;;;;;5110901;28;20030;-58
2022/07/10 11:33:55;;;;;;;3.42;3.10;;;25.80;64.40;;;;;;5102995;28;20035;-59
2022/07/10 11:36:25;;;;;;;3.38;3.08;;;25.90;64.30;;;;;;5109377;28;20032;-58
2022/07/10 11:38:58;;;;;;;3.35;3.05;;;25.80;64.40;;;;;;5113618;28;20503;-58
2022/07/10 11:41:24;;;;;;;8.45;6.90;;;25.90;64.40;;;;;;5106775;28;20027;-58
2022/07/10 11:43:52;;;;;;;4.32;3.80;;;25.90;64.40;;;;;;5113356;28;20360;-59
2022/07/10 11:46:21;;;;;;;4.40;3.75;;;25.90;64.50;;;;;;5107050;28;20023;-58
2022/07/10 11:48:53;;;;;;;3.08;2.85;;;25.80;64.50;;;;;;5112694;28;20043;-58
2022/07/10 11:51:23;;;;;;;3.30;2.97;;;25.90;64.40;;;;;;5113255;28;20059;-59
2022/07/10 11:54:00;;;;;;;3.50;3.20;;;25.90;64.60;;;;;;5111537;28;20054;-59
2022/07/10 11:56:27;;;;;;;3.13;2.90;;;25.90;64.60;;;;;;5112334;28;20086;-59
2022/07/10 11:59:00;;;;;;;3.40;3.10;;;26.00;64.60;;;;;;5108076;28;20055;-59
2022/07/10 12:01:28;;;;;;;3.25;2.92;;;26.00;64.60;;;;;;5111097;28;20063;-59
2022/07/10 12:04:01;;;;;;;3.15;2.85;;;26.10;64.60;;;;;;5101735;28;20030;-58
2022/07/10 12:06:27;;;;;;;3.75;3.33;;;26.10;64.70;;;;;;5103619;28;20046;-59
2022/07/10 12:08:53;;;;;;;4.18;2.75;;;26.00;64.70;;;;;;5110745;28;20527;-58
2022/07/10 12:11:20;;;;;;;3.83;3.10;;;26.00;64.60;;;;;;5105779;28;20027;-57
2022/07/10 12:13:47;;;;;;;3.45;3.05;;;26.00;64.70;;;;;;5110609;28;20050;-58
2022/07/10 12:16:14;;;;;;;2.85;2.65;;;26.00;64.70;;;;;;5112642;28;20055;-59
2022/07/10 12:18:42;;;;;;;3.30;2.90;;;26.00;64.70;;;;;;5105397;28;20011;-58
2022/07/10 12:21:10;;;;;;;5.55;3.85;;;26.00;64.90;;;;;;5108354;28;20034;-59
2022/07/10 12:23:39;;;;;;;3.10;2.80;;;26.00;64.80;;;;;;5110696;28;20072;-59
2022/07/10 12:26:07;;;;;;;3.03;2.80;;;26.00;64.30;;;;;;5105658;28;20055;-58
2022/07/10 12:28:48;;;;;;;3.30;3.00;;;26.00;64.10;;;;;;5107479;28;20011;-58
2022/07/10 12:31:21;;;;;;;2.75;2.47;;;25.90;63.40;;;;;;5106012;28;20032;-58
2022/07/10 12:33:52;;;;;;;2.70;2.50;;;25.90;63.60;;;;;;5109768;28;20023;-58
2022/07/10 12:36:18;;;;;;;2.97;2.70;;;25.90;63.80;;;;;;5110906;28;20085;-59
2022/07/10 12:38:54;;;;;;;3.35;2.90;;;25.80;63.60;;;;;;5109365;28;20052;-58
2022/07/10 12:41:24;;;;;;;3.13;2.80;;;25.90;63.60;;;;;;5110850;28;20088;-59
2022/07/10 12:43:50;;;;;;;3.28;2.97;;;25.90;63.40;;;;;;5107044;28;20036;-59
2022/07/10 12:46:23;;;;;;;3.85;3.00;;;25.90;63.20;;;;;;5108459;28;20023;-58
2022/07/10 12:49:05;;;;;;;2.72;2.53;;;26.00;63.00;;;;;;5104311;28;20052;-58
2022/07/10 12:51:44;;;;;;;2.88;2.60;;;26.00;62.90;;;;;;5102056;28;20027;-58
2022/07/10 12:54:29;;;;;;;2.97;2.70;;;26.00;63.00;;;;;;5106242;28;20115;-59
2022/07/10 12:57:00;;;;;;;3.00;2.22;;;26.10;63.00;;;;;;5103947;28;20055;-58
2022/07/10 12:59:27;;;;;;;2.55;2.33;;;26.10;62.90;;;;;;5106639;28;20016;-59
2022/07/10 13:01:52;;;;;;;2.63;2.42;;;26.20;62.90;;;;;;5105688;28;20024;-58
2022/07/10 13:04:27;;;;;;;3.10;2.80;;;26.20;63.00;;;;;;5111940;28;20023;-59